Bonaire, Georgia
Current Conditions -  °F | °C
As of 2:58 PM on Monday 24 Nov 2014 (Local Time) from KWRB Reporting Station
Few Clouds Few Clouds  
Wind Chill: 75°   Ceiling: Unl
Heat Index: 75°   Visibility: 9mi
Dew Point: 66°   Wind: 12mph
Humidity: 72%   Direction: 170°S
Pressure: 29.8"   Gusts: NA
Location:  32.54°N, 83.6°W
Report Text: KWRB 241958Z AUTO 17010KT 9SM FEW110 24/19 A2980 RMK AO2 SLP092 T02410187
Loading
Personal Weather Stations






























Interactive Weather Map New forecast layout! Learn more

10-Day Weather Forecast

Advertisements
Track Severe Weather on mobile